createdAt,value
2023-03-26T00:01:29.752Z,8.08
2023-03-26T00:03:57.631Z,8.07
2023-03-26T00:06:26.874Z,8.05
2023-03-26T00:08:53.836Z,8.08
2023-03-26T00:11:22.855Z,8.06
2023-03-26T00:13:49.870Z,8.01
2023-03-26T00:16:19.499Z,8.00
2023-03-26T00:18:46.527Z,8.02
2023-03-26T00:21:16.159Z,8.02
2023-03-26T00:23:44.109Z,7.95
2023-03-26T00:26:11.187Z,7.93
2023-03-26T00:28:40.356Z,7.96
2023-03-26T00:31:10.557Z,7.97
2023-03-26T00:33:40.931Z,7.93
2023-03-26T00:36:11.161Z,7.89
2023-03-26T00:38:39.191Z,7.86
2023-03-26T00:41:08.280Z,7.85
2023-03-26T00:43:36.117Z,7.91
2023-03-26T00:46:03.013Z,7.90
2023-03-26T00:48:42.173Z,7.85
2023-03-26T00:54:27.237Z,7.86
2023-03-26T00:56:55.900Z,7.85
2023-03-26T00:59:22.875Z,7.85
2023-03-26T01:01:49.841Z,7.83
2023-03-26T01:04:31.218Z,7.91
2023-03-26T01:07:03.971Z,7.89
2023-03-26T01:09:35.006Z,7.90
2023-03-26T01:12:04.732Z,7.94
2023-03-26T01:14:31.475Z,7.97
2023-03-26T01:17:18.590Z,7.96
2023-03-26T01:20:38.589Z,8.00
2023-03-26T01:23:41.677Z,7.95
2023-03-26T01:26:54.159Z,7.95
2023-03-26T01:30:16.958Z,7.90
2023-03-26T01:32:55.642Z,7.93
2023-03-26T01:35:37.607Z,7.94
2023-03-26T01:38:23.310Z,7.89
2023-03-26T01:41:31.789Z,7.88
2023-03-26T01:44:06.820Z,7.91
2023-03-26T01:46:36.823Z,7.90
2023-03-26T01:49:05.387Z,7.88
2023-03-26T01:51:34.827Z,7.88
2023-03-26T01:54:05.956Z,7.86
2023-03-26T01:57:00.763Z,7.90
2023-03-26T01:59:41.519Z,7.85
2023-03-26T02:02:11.660Z,7.87
2023-03-26T02:04:53.383Z,7.88
2023-03-26T02:07:34.631Z,7.95
2023-03-26T02:10:10.403Z,7.89
2023-03-26T02:12:41.204Z,7.90
2023-03-26T02:15:08.477Z,7.91
2023-03-26T02:17:35.591Z,7.91
2023-03-26T02:20:05.852Z,7.88
2023-03-26T02:22:40.773Z,7.89
2023-03-26T02:25:11.105Z,7.88
2023-03-26T02:27:38.780Z,7.92
2023-03-26T02:30:09.456Z,7.86
2023-03-26T02:32:36.453Z,7.86
2023-03-26T02:35:05.429Z,7.88
2023-03-26T02:37:33.774Z,7.89
2023-03-26T02:40:11.639Z,7.93
2023-03-26T02:42:41.141Z,7.89
2023-03-26T02:45:08.544Z,7.90
2023-03-26T02:47:53.895Z,7.95
2023-03-26T02:50:41.589Z,7.94
2023-03-26T02:53:39.276Z,7.95
2023-03-26T02:56:24.566Z,7.95
2023-03-26T02:59:04.395Z,8.01
2023-03-26T03:01:35.039Z,8.02
2023-03-26T03:04:04.455Z,8.02
2023-03-26T03:06:35.336Z,7.99
2023-03-26T03:09:02.908Z,8.02
2023-03-26T03:11:36.078Z,8.03
2023-03-26T03:14:03.914Z,8.01
2023-03-26T03:16:32.130Z,8.04
2023-03-26T03:19:19.163Z,8.00
2023-03-26T03:21:47.129Z,7.99
2023-03-26T03:24:14.029Z,7.99
2023-03-26T03:26:45.596Z,7.96
2023-03-26T03:29:35.719Z,7.97
2023-03-26T03:32:22.511Z,8.02
2023-03-26T03:34:51.050Z,7.99
2023-03-26T03:37:19.103Z,8.02
2023-03-26T03:39:51.094Z,8.03
2023-03-26T03:42:20.577Z,8.02
2023-03-26T03:44:49.425Z,8.04
2023-03-26T03:47:46.152Z,8.08
2023-03-26T03:50:14.750Z,8.11
2023-03-26T03:52:53.213Z,8.10
2023-03-26T03:55:20.054Z,8.14
2023-03-26T03:57:52.681Z,8.11
2023-03-26T04:00:22.485Z,8.16
2023-03-26T04:03:06.348Z,8.19
2023-03-26T04:05:33.615Z,8.17
2023-03-26T04:08:00.494Z,8.16
2023-03-26T04:10:27.022Z,8.17
2023-03-26T04:13:12.617Z,8.23
2023-03-26T04:15:59.997Z,8.22
2023-03-26T04:18:27.614Z,8.25
2023-03-26T04:20:56.657Z,8.31
2023-03-26T04:23:29.156Z,8.33
2023-03-26T04:26:07.299Z,8.32
2023-03-26T04:29:00.788Z,8.31
2023-03-26T04:31:30.382Z,8.35
2023-03-26T04:34:05.751Z,8.34
2023-03-26T04:36:35.358Z,8.33
2023-03-26T04:39:05.005Z,8.33
2023-03-26T04:41:50.318Z,8.33
2023-03-26T04:44:22.257Z,8.31
2023-03-26T04:47:00.089Z,8.35
2023-03-26T04:49:35.535Z,8.36
2023-03-26T04:52:02.700Z,8.40
2023-03-26T04:54:59.123Z,8.44
2023-03-26T04:57:33.675Z,8.40
2023-03-26T05:00:18.660Z,8.46
2023-03-26T05:02:50.840Z,8.46
2023-03-26T05:05:18.492Z,8.48
2023-03-26T05:07:45.627Z,8.49
2023-03-26T05:10:16.583Z,8.51
2023-03-26T05:12:53.067Z,8.52
2023-03-26T05:15:33.251Z,8.47
2023-03-26T05:18:12.676Z,8.48
2023-03-26T05:20:43.430Z,8.49
2023-03-26T05:23:10.798Z,8.51
2023-03-26T05:25:41.242Z,8.47
2023-03-26T05:28:15.417Z,8.55
2023-03-26T05:30:55.572Z,8.54
2023-03-26T05:33:24.306Z,8.53
2023-03-26T05:36:07.380Z,8.59
2023-03-26T05:38:33.993Z,8.57
2023-03-26T05:41:05.261Z,8.52
2023-03-26T05:43:33.776Z,8.48
2023-03-26T05:46:16.881Z,8.52
2023-03-26T05:48:43.655Z,8.56
2023-03-26T05:51:10.436Z,8.57
2023-03-26T05:53:41.444Z,8.55
2023-03-26T05:56:25.935Z,8.57
2023-03-26T05:59:16.101Z,8.57
2023-03-26T06:02:01.307Z,8.51
2023-03-26T06:04:53.854Z,8.52
2023-03-26T06:07:31.292Z,8.51
2023-03-26T06:10:09.607Z,8.56
2023-03-26T06:12:36.836Z,8.55
2023-03-26T06:15:04.611Z,8.56
2023-03-26T06:17:43.064Z,8.57
2023-03-26T06:20:32.921Z,8.56
2023-03-26T06:23:03.360Z,8.53
2023-03-26T06:25:47.677Z,8.59
2023-03-26T06:28:23.049Z,8.60
2023-03-26T06:31:02.655Z,8.62
2023-03-26T06:33:35.796Z,8.64
2023-03-26T06:36:02.818Z,8.55
2023-03-26T06:38:29.468Z,8.62
2023-03-26T06:41:07.685Z,8.68
2023-03-26T06:43:54.780Z,8.67
2023-03-26T06:46:56.530Z,8.48
2023-03-26T06:49:58.385Z,8.38
2023-03-26T06:52:31.286Z,8.45
2023-03-26T06:55:10.331Z,8.48
2023-03-26T06:57:56.960Z,8.50
2023-03-26T07:00:42.432Z,8.48
2023-03-26T07:03:29.481Z,8.40
2023-03-26T07:06:14.945Z,8.40
2023-03-26T07:09:01.652Z,8.31
2023-03-26T07:11:43.051Z,8.30
2023-03-26T07:14:24.832Z,8.33
2023-03-26T07:17:04.669Z,8.26
2023-03-26T07:19:47.021Z,8.20
2023-03-26T07:22:22.507Z,8.33
2023-03-26T07:25:04.995Z,8.26
2023-03-26T07:28:30.811Z,8.24
2023-03-26T07:31:27.298Z,8.13
2023-03-26T07:34:39.934Z,8.23
2023-03-26T07:37:59.309Z,8.27
2023-03-26T07:40:53.536Z,8.24
2023-03-26T07:44:27.512Z,8.19
2023-03-26T07:47:31.560Z,8.28
2023-03-26T07:50:19.148Z,8.35
2023-03-26T07:53:01.417Z,8.41
2023-03-26T07:56:01.478Z,8.45
2023-03-26T07:59:25.652Z,8.47
2023-03-26T08:02:41.830Z,8.43
2023-03-26T08:05:37.509Z,8.46
2023-03-26T08:09:08.537Z,8.53
2023-03-26T08:12:08.947Z,8.54
2023-03-26T08:14:50.095Z,8.44
2023-03-26T08:17:42.915Z,8.46
2023-03-26T08:20:35.360Z,8.38
2023-03-26T08:23:09.559Z,8.26
2023-03-26T08:26:12.835Z,8.07
2023-03-26T08:29:04.074Z,8.11
2023-03-26T08:31:36.505Z,8.00
2023-03-26T08:34:03.249Z,7.99
2023-03-26T08:36:30.179Z,8.04
2023-03-26T08:38:59.290Z,7.98
2023-03-26T08:42:16.189Z,8.07
2023-03-26T08:45:06.466Z,8.04
2023-03-26T08:48:24.550Z,8.04
2023-03-26T08:51:18.508Z,7.94
2023-03-26T08:54:07.189Z,8.02
2023-03-26T08:57:00.515Z,8.02
2023-03-26T08:59:39.165Z,8.07
2023-03-26T09:02:12.104Z,8.19
2023-03-26T09:04:41.594Z,8.17
2023-03-26T09:07:32.278Z,8.12
2023-03-26T09:10:26.874Z,8.04
2023-03-26T09:13:12.070Z,8.06
2023-03-26T09:16:32.583Z,8.09
2023-03-26T09:19:36.702Z,8.13
2023-03-26T09:22:21.906Z,8.30
2023-03-26T09:25:25.697Z,8.43
2023-03-26T09:28:43.755Z,8.56
2023-03-26T09:31:38.176Z,8.74
2023-03-26T09:34:26.640Z,9.30
2023-03-26T09:37:13.526Z,9.19
2023-03-26T09:40:18.555Z,9.22
2023-03-26T09:42:54.177Z,9.31
2023-03-26T09:45:29.816Z,9.21
2023-03-26T09:48:31.524Z,9.16
2023-03-26T09:51:43.161Z,9.31
2023-03-26T09:54:48.342Z,9.36
2023-03-26T09:57:23.744Z,9.34
2023-03-26T10:00:03.118Z,9.77
2023-03-26T10:03:00.823Z,9.67
2023-03-26T10:05:49.111Z,9.73
2023-03-26T10:08:30.229Z,9.97
2023-03-26T10:11:11.097Z,10.05
2023-03-26T10:13:58.534Z,10.59
2023-03-26T10:16:34.743Z,10.68
2023-03-26T10:19:31.195Z,11.17
2023-03-26T10:22:43.712Z,11.65
2023-03-26T10:25:17.831Z,11.51
2023-03-26T10:27:56.496Z,11.88
2023-03-26T10:31:00.273Z,11.85
2023-03-26T10:33:50.482Z,11.76
2023-03-26T10:36:31.695Z,11.56
2023-03-26T10:39:38.114Z,11.78
2023-03-26T10:42:41.234Z,12.38
2023-03-26T10:45:55.749Z,12.47
2023-03-26T10:48:55.319Z,11.88
2023-03-26T10:51:53.332Z,11.71
2023-03-26T10:54:49.498Z,11.32
2023-03-26T10:57:35.895Z,11.34
2023-03-26T11:00:13.079Z,10.80
2023-03-26T11:02:47.222Z,10.63
2023-03-26T11:05:32.893Z,10.64
2023-03-26T11:08:10.110Z,10.62
2023-03-26T11:10:45.879Z,10.65
2023-03-26T11:13:21.850Z,10.60
2023-03-26T11:16:23.692Z,10.62
2023-03-26T11:19:05.040Z,10.69
2023-03-26T11:21:51.077Z,11.14
2023-03-26T11:24:40.093Z,11.60
2023-03-26T11:27:26.517Z,11.88
2023-03-26T11:30:02.391Z,12.26
2023-03-26T11:32:40.545Z,11.94
2023-03-26T11:35:09.080Z,12.29
2023-03-26T11:37:42.525Z,12.11
2023-03-26T11:40:24.255Z,12.78
2023-03-26T11:43:00.575Z,12.91
2023-03-26T11:45:31.748Z,12.73
2023-03-26T11:48:53.961Z,12.57
2023-03-26T11:51:29.303Z,12.57
2023-03-26T11:53:57.805Z,12.41
2023-03-26T11:56:33.622Z,11.94
2023-03-26T11:59:11.346Z,11.88
2023-03-26T12:01:58.920Z,11.88
2023-03-26T12:04:41.560Z,11.58
2023-03-26T12:07:23.314Z,11.45
2023-03-26T12:09:57.659Z,11.37
2023-03-26T12:12:46.917Z,10.90
2023-03-26T12:15:20.166Z,10.75
2023-03-26T12:17:51.355Z,10.73
2023-03-26T12:20:26.915Z,10.68
2023-03-26T12:23:01.714Z,10.89
2023-03-26T12:25:36.965Z,10.86
2023-03-26T12:28:13.777Z,11.33
2023-03-26T12:30:45.021Z,11.42
2023-03-26T12:33:39.188Z,12.07
2023-03-26T12:36:19.301Z,12.45
2023-03-26T12:38:46.598Z,12.76
2023-03-26T12:44:43.120Z,12.03
2023-03-26T12:44:59.719Z,12.53
2023-03-26T12:47:59.920Z,12.44
2023-03-26T12:50:34.533Z,12.66
2023-03-26T12:53:26.422Z,12.75
2023-03-26T12:56:00.544Z,12.41
2023-03-26T12:59:00.192Z,12.14
2023-03-26T13:02:03.318Z,12.44
2023-03-26T13:04:30.166Z,12.47
2023-03-26T13:07:35.187Z,12.70
2023-03-26T13:10:08.538Z,12.87
2023-03-26T13:12:48.705Z,12.87
2023-03-26T13:15:27.518Z,12.78
2023-03-26T13:18:15.264Z,12.58
2023-03-26T13:21:00.540Z,12.48
2023-03-26T13:23:36.325Z,12.39
2023-03-26T13:26:31.483Z,12.50
2023-03-26T13:29:23.465Z,12.79
2023-03-26T13:31:57.667Z,12.93
2023-03-26T13:35:04.089Z,13.53
2023-03-26T13:37:41.739Z,13.30
2023-03-26T13:40:36.360Z,12.90
2023-03-26T13:43:34.037Z,13.00
2023-03-26T13:46:30.991Z,12.96
2023-03-26T13:49:03.313Z,13.15
2023-03-26T13:51:50.284Z,12.81
2023-03-26T13:54:26.187Z,12.75
2023-03-26T13:57:05.485Z,12.73
2023-03-26T13:59:48.019Z,12.74
2023-03-26T14:02:26.106Z,12.65
2023-03-26T14:05:24.970Z,12.62
2023-03-26T14:08:16.562Z,12.60
2023-03-26T14:10:49.249Z,12.59
2023-03-26T14:13:36.457Z,12.69
2023-03-26T14:16:20.957Z,12.61
2023-03-26T14:19:00.568Z,12.66
2023-03-26T14:21:36.460Z,12.61
2023-03-26T14:24:11.461Z,12.57
2023-03-26T14:26:58.371Z,12.57
2023-03-26T14:29:56.322Z,12.59
2023-03-26T14:32:39.269Z,12.50
2023-03-26T14:35:19.993Z,12.55
2023-03-26T14:38:06.060Z,12.57
2023-03-26T14:40:52.155Z,12.53
2023-03-26T14:43:30.927Z,12.56
2023-03-26T14:46:23.478Z,12.60
2023-03-26T14:49:11.622Z,12.57
2023-03-26T14:51:55.078Z,12.61
2023-03-26T14:54:27.020Z,12.43
2023-03-26T14:57:31.703Z,12.30
2023-03-26T15:00:28.774Z,12.15
2023-03-26T15:03:34.835Z,11.93
2023-03-26T15:06:23.317Z,11.74
2023-03-26T15:09:14.940Z,11.69
2023-03-26T15:12:12.938Z,11.37
2023-03-26T15:15:17.777Z,11.30
2023-03-26T15:18:06.188Z,11.28
2023-03-26T15:20:55.429Z,11.03
2023-03-26T15:23:34.453Z,11.02
2023-03-26T15:26:14.291Z,10.90
2023-03-26T15:29:18.961Z,10.70
2023-03-26T15:31:48.383Z,10.58
2023-03-26T15:34:42.505Z,10.48
2023-03-26T15:37:57.228Z,10.57
2023-03-26T15:40:42.966Z,10.48
2023-03-26T15:43:11.239Z,10.49
2023-03-26T15:46:12.010Z,10.64
2023-03-26T15:49:14.440Z,10.47
2023-03-26T15:52:04.016Z,10.57
2023-03-26T15:54:46.589Z,10.49
2023-03-26T15:57:26.530Z,10.24
2023-03-26T16:00:12.259Z,10.15
2023-03-26T16:02:49.994Z,10.10
2023-03-26T16:05:22.712Z,10.05
2023-03-26T16:08:10.583Z,10.03
2023-03-26T16:10:58.908Z,9.98
2023-03-26T16:13:25.615Z,9.87
2023-03-26T16:16:16.008Z,9.90
2023-03-26T16:18:45.436Z,9.76
2023-03-26T16:21:31.782Z,9.83
2023-03-26T16:24:02.175Z,9.68
2023-03-26T16:26:44.016Z,9.57
2023-03-26T16:29:14.151Z,9.58
2023-03-26T16:32:07.024Z,9.41
2023-03-26T16:34:57.228Z,9.47
2023-03-26T16:37:33.703Z,9.43
2023-03-26T16:40:20.620Z,9.28
2023-03-26T16:43:18.690Z,9.29
2023-03-26T16:45:57.327Z,9.31
2023-03-26T16:48:32.331Z,9.28
2023-03-26T16:51:21.159Z,9.26
2023-03-26T16:54:04.102Z,9.03
2023-03-26T16:56:48.874Z,9.05
2023-03-26T17:00:05.813Z,9.14
2023-03-26T17:02:48.117Z,9.09
2023-03-26T17:05:21.071Z,8.99
2023-03-26T17:08:01.256Z,8.97
2023-03-26T17:10:42.284Z,8.93
2023-03-26T17:13:23.361Z,8.93
2023-03-26T17:16:10.466Z,8.96
2023-03-26T17:18:48.159Z,8.85
2023-03-26T17:21:47.111Z,8.85
2023-03-26T17:24:26.564Z,8.78
2023-03-26T17:27:28.109Z,8.73
2023-03-26T17:30:28.049Z,8.76
2023-03-26T17:33:05.833Z,8.73
2023-03-26T17:35:49.856Z,8.77
2023-03-26T17:38:25.601Z,8.73
2023-03-26T17:40:57.090Z,8.72
2023-03-26T17:43:56.482Z,8.71
2023-03-26T17:46:48.309Z,8.67
2023-03-26T17:49:22.134Z,8.67
2023-03-26T17:51:55.595Z,8.58
2023-03-26T17:54:34.671Z,8.52
2023-03-26T17:57:07.136Z,8.53
2023-03-26T17:59:36.779Z,8.52
2023-03-26T18:02:07.663Z,8.54
2023-03-26T18:04:42.105Z,8.49
2023-03-26T18:07:34.124Z,8.37
2023-03-26T18:10:33.034Z,8.42
2023-03-26T18:13:17.924Z,8.43
2023-03-26T18:15:50.357Z,8.42
2023-03-26T18:18:24.767Z,8.48
2023-03-26T18:20:52.129Z,8.47
2023-03-26T18:23:28.529Z,8.41
2023-03-26T18:25:58.067Z,8.36
2023-03-26T18:28:38.975Z,8.31
2023-03-26T18:31:17.019Z,8.29
2023-03-26T18:33:45.911Z,8.28
2023-03-26T18:36:14.448Z,8.19
2023-03-26T18:41:27.534Z,8.18
2023-03-26T18:43:55.212Z,8.20
2023-03-26T18:46:23.766Z,8.17
2023-03-26T18:48:50.564Z,8.23
2023-03-26T18:51:22.863Z,8.16
2023-03-26T18:53:55.467Z,8.17
2023-03-26T18:56:43.040Z,8.23
2023-03-26T18:59:35.148Z,8.22
2023-03-26T19:02:05.131Z,8.21
2023-03-26T19:04:36.766Z,8.21
2023-03-26T19:07:06.523Z,8.22
2023-03-26T19:09:33.305Z,8.23
2023-03-26T19:12:07.626Z,8.16
2023-03-26T19:14:36.806Z,8.23
2023-03-26T19:17:06.690Z,8.17
2023-03-26T19:19:37.122Z,8.14
2023-03-26T19:22:09.232Z,8.18
2023-03-26T19:24:36.090Z,8.13
2023-03-26T19:27:03.318Z,8.12
2023-03-26T19:29:33.784Z,8.08
2023-03-26T19:32:05.164Z,8.07
2023-03-26T19:34:35.132Z,8.04
2023-03-26T19:37:04.446Z,8.06
2023-03-26T19:39:37.725Z,8.00
2023-03-26T19:42:06.719Z,7.99
2023-03-26T19:44:39.422Z,7.92
2023-03-26T19:47:13.936Z,7.96
2023-03-26T19:49:58.469Z,7.99
2023-03-26T19:52:26.505Z,7.80
2023-03-26T19:55:00.330Z,7.81
2023-03-26T19:57:29.301Z,7.73
2023-03-26T19:59:56.127Z,7.75
2023-03-26T20:02:22.789Z,7.80
2023-03-26T20:04:49.462Z,7.71
2023-03-26T20:07:18.836Z,7.72
2023-03-26T20:09:48.844Z,7.68
2023-03-26T20:12:19.688Z,7.62
2023-03-26T20:14:46.392Z,7.48
2023-03-26T20:17:16.088Z,7.54
2023-03-26T20:19:44.504Z,7.54
2023-03-26T20:22:23.555Z,7.48
2023-03-26T20:24:51.630Z,7.46
2023-03-26T20:27:19.286Z,7.48
2023-03-26T20:29:46.520Z,7.51
2023-03-26T20:32:27.033Z,7.47
2023-03-26T20:34:53.998Z,7.45
2023-03-26T20:37:20.562Z,7.43
2023-03-26T20:39:47.100Z,7.42
2023-03-26T20:42:15.791Z,7.43
2023-03-26T20:44:43.673Z,7.48
2023-03-26T20:47:11.466Z,7.37
2023-03-26T20:49:38.059Z,7.35
2023-03-26T20:52:05.041Z,7.32
2023-03-26T20:54:31.593Z,7.32
2023-03-26T20:56:58.302Z,7.35
2023-03-26T20:59:27.386Z,7.43
2023-03-26T21:01:56.729Z,7.35
2023-03-26T21:04:26.117Z,7.35
2023-03-26T21:06:57.607Z,7.29
2023-03-26T21:09:34.180Z,7.39
2023-03-26T21:12:21.515Z,7.25
2023-03-26T21:14:48.451Z,7.36
2023-03-26T21:17:22.200Z,7.20
2023-03-26T21:19:49.391Z,7.19
2023-03-26T21:22:30.450Z,7.13
2023-03-26T21:25:19.700Z,7.13
2023-03-26T21:28:11.165Z,7.01
2023-03-26T21:30:37.924Z,7.01
2023-03-26T21:33:05.258Z,7.00
2023-03-26T21:35:34.646Z,7.05
2023-03-26T21:38:04.349Z,7.02
2023-03-26T21:40:31.300Z,6.93
2023-03-26T21:42:58.100Z,6.96
2023-03-26T21:45:25.031Z,7.00
2023-03-26T21:47:51.891Z,6.99
2023-03-26T21:50:21.975Z,6.93
2023-03-26T21:52:49.972Z,6.98
2023-03-26T21:55:21.955Z,6.96
2023-03-26T21:58:13.284Z,6.96
2023-03-26T22:01:07.999Z,7.13
2023-03-26T22:03:37.410Z,7.16
2023-03-26T22:06:12.743Z,7.04
2023-03-26T22:08:40.830Z,6.88
2023-03-26T22:11:09.923Z,6.93
2023-03-26T22:13:38.160Z,6.95
2023-03-26T22:16:07.166Z,6.93
2023-03-26T22:18:34.217Z,6.91
2023-03-26T22:21:01.114Z,6.97
2023-03-26T22:23:34.060Z,7.01
2023-03-26T22:26:00.757Z,7.00
2023-03-26T22:28:27.594Z,7.00
2023-03-26T22:30:54.207Z,7.04
2023-03-26T22:33:21.043Z,6.98
2023-03-26T22:35:47.636Z,6.97
2023-03-26T22:38:14.960Z,6.87
2023-03-26T22:40:41.477Z,6.90
2023-03-26T22:43:09.082Z,6.84
2023-03-26T22:45:37.408Z,6.85
2023-03-26T22:48:04.809Z,6.87
2023-03-26T22:50:32.431Z,6.82
2023-03-26T22:52:59.083Z,6.83
2023-03-26T22:55:28.165Z,6.81
2023-03-26T22:57:55.628Z,6.76
2023-03-26T23:00:22.498Z,6.79
2023-03-26T23:02:49.952Z,6.76
2023-03-26T23:05:20.255Z,6.76
2023-03-26T23:07:47.485Z,6.72
2023-03-26T23:10:14.203Z,6.69
2023-03-26T23:12:41.604Z,6.65
2023-03-26T23:15:09.530Z,6.61
2023-03-26T23:17:37.466Z,6.67
2023-03-26T23:20:12.054Z,6.52
2023-03-26T23:22:38.775Z,6.50
2023-03-26T23:25:06.255Z,6.59
2023-03-26T23:27:33.009Z,6.58
2023-03-26T23:30:01.354Z,6.56
2023-03-26T23:32:28.191Z,6.46
2023-03-26T23:34:56.188Z,6.54
2023-03-26T23:37:23.831Z,6.58
2023-03-26T23:39:51.453Z,6.59
2023-03-26T23:42:28.624Z,6.69
2023-03-26T23:44:57.414Z,6.70
2023-03-26T23:47:24.299Z,6.64
2023-03-26T23:49:51.222Z,6.63
2023-03-26T23:52:18.154Z,6.50
2023-03-26T23:54:45.436Z,6.50
2023-03-26T23:57:11.979Z,6.40
2023-03-26T23:59:41.427Z,6.42
